sensor_id;sensor_type;location;lat;lon;timestamp;P1;durP1;ratioP1;P2;durP2;ratioP2
9166;SDS011;4618;48.818;9.088;2022-09-21T00:00:21;6.63;;;5.20;;
9166;SDS011;4618;48.818;9.088;2022-09-21T00:02:47;8.53;;;5.73;;
9166;SDS011;4618;48.818;9.088;2022-09-21T00:05:13;9.13;;;5.83;;
9166;SDS011;4618;48.818;9.088;2022-09-21T00:07:39;7.83;;;5.47;;
9166;SDS011;4618;48.818;9.088;2022-09-21T00:10:04;8.00;;;5.93;;
9166;SDS011;4618;48.818;9.088;2022-09-21T00:12:30;7.40;;;5.10;;
9166;SDS011;4618;48.818;9.088;2022-09-21T00:14:57;6.63;;;5.63;;
9166;SDS011;4618;48.818;9.088;2022-09-21T00:17:22;6.37;;;5.23;;
9166;SDS011;4618;48.818;9.088;2022-09-21T00:19:48;6.73;;;5.27;;
9166;SDS011;4618;48.818;9.088;2022-09-21T00:22:14;10.97;;;5.00;;
9166;SDS011;4618;48.818;9.088;2022-09-21T00:24:39;8.73;;;5.57;;
9166;SDS011;4618;48.818;9.088;2022-09-21T00:27:05;7.37;;;5.00;;
9166;SDS011;4618;48.818;9.088;2022-09-21T00:29:30;6.50;;;4.77;;
9166;SDS011;4618;48.818;9.088;2022-09-21T00:31:56;9.53;;;5.27;;
9166;SDS011;4618;48.818;9.088;2022-09-21T00:34:22;10.03;;;5.70;;
9166;SDS011;4618;48.818;9.088;2022-09-21T00:36:48;6.63;;;4.70;;
9166;SDS011;4618;48.818;9.088;2022-09-21T00:39:14;6.63;;;4.60;;
9166;SDS011;4618;48.818;9.088;2022-09-21T00:41:39;7.10;;;4.00;;
9166;SDS011;4618;48.818;9.088;2022-09-21T00:46:46;7.73;;;4.70;;
9166;SDS011;4618;48.818;9.088;2022-09-21T00:49:13;6.80;;;5.00;;
9166;SDS011;4618;48.818;9.088;2022-09-21T00:51:47;5.50;;;4.63;;
9166;SDS011;4618;48.818;9.088;2022-09-21T00:54:15;5.87;;;4.70;;
9166;SDS011;4618;48.818;9.088;2022-09-21T00:56:44;8.00;;;4.60;;
9166;SDS011;4618;48.818;9.088;2022-09-21T00:59:10;6.43;;;5.20;;
9166;SDS011;4618;48.818;9.088;2022-09-21T01:01:38;6.67;;;5.50;;
9166;SDS011;4618;48.818;9.088;2022-09-21T01:04:04;8.40;;;5.23;;
9166;SDS011;4618;48.818;9.088;2022-09-21T01:06:31;6.30;;;4.73;;
9166;SDS011;4618;48.818;9.088;2022-09-21T01:08:58;5.77;;;4.73;;
9166;SDS011;4618;48.818;9.088;2022-09-21T01:16:33;10.10;;;5.30;;
9166;SDS011;4618;48.818;9.088;2022-09-21T01:23:07;6.23;;;5.03;;
9166;SDS011;4618;48.818;9.088;2022-09-21T01:30:45;8.60;;;5.10;;
9166;SDS011;4618;48.818;9.088;2022-09-21T01:33:16;6.07;;;4.33;;
9166;SDS011;4618;48.818;9.088;2022-09-21T01:36:02;7.67;;;4.87;;
9166;SDS011;4618;48.818;9.088;2022-09-21T01:38:41;5.37;;;4.87;;
9166;SDS011;4618;48.818;9.088;2022-09-21T01:41:13;6.37;;;5.50;;
9166;SDS011;4618;48.818;9.088;2022-09-21T01:43:43;9.53;;;5.33;;
9166;SDS011;4618;48.818;9.088;2022-09-21T01:46:16;6.30;;;5.43;;
9166;SDS011;4618;48.818;9.088;2022-09-21T01:48:45;8.33;;;5.83;;
9166;SDS011;4618;48.818;9.088;2022-09-21T01:51:14;7.27;;;5.80;;
9166;SDS011;4618;48.818;9.088;2022-09-21T01:53:43;9.90;;;5.50;;
9166;SDS011;4618;48.818;9.088;2022-09-21T01:56:21;8.23;;;5.10;;
9166;SDS011;4618;48.818;9.088;2022-09-21T01:59:02;8.13;;;5.80;;
9166;SDS011;4618;48.818;9.088;2022-09-21T02:01:36;8.60;;;5.67;;
9166;SDS011;4618;48.818;9.088;2022-09-21T02:04:07;9.00;;;5.53;;
9166;SDS011;4618;48.818;9.088;2022-09-21T02:06:35;7.90;;;5.60;;
9166;SDS011;4618;48.818;9.088;2022-09-21T02:09:05;6.67;;;4.90;;
9166;SDS011;4618;48.818;9.088;2022-09-21T02:11:32;9.50;;;5.50;;
9166;SDS011;4618;48.818;9.088;2022-09-21T02:13:58;9.13;;;5.90;;
9166;SDS011;4618;48.818;9.088;2022-09-21T02:19:04;11.83;;;6.07;;
9166;SDS011;4618;48.818;9.088;2022-09-21T02:26:48;7.50;;;5.77;;
9166;SDS011;4618;48.818;9.088;2022-09-21T02:32:30;7.07;;;5.70;;
9166;SDS011;4618;48.818;9.088;2022-09-21T02:35:37;8.97;;;5.60;;
9166;SDS011;4618;48.818;9.088;2022-09-21T02:38:16;7.40;;;5.03;;
9166;SDS011;4618;48.818;9.088;2022-09-21T02:43:23;6.43;;;5.57;;
9166;SDS011;4618;48.818;9.088;2022-09-21T02:45:54;6.67;;;4.60;;
9166;SDS011;4618;48.818;9.088;2022-09-21T02:48:35;5.47;;;4.63;;
9166;SDS011;4618;48.818;9.088;2022-09-21T02:51:16;5.33;;;4.60;;
9166;SDS011;4618;48.818;9.088;2022-09-21T02:53:46;8.23;;;5.70;;
9166;SDS011;4618;48.818;9.088;2022-09-21T02:56:13;6.87;;;5.27;;
9166;SDS011;4618;48.818;9.088;2022-09-21T02:58:44;11.00;;;5.93;;
9166;SDS011;4618;48.818;9.088;2022-09-21T03:01:13;7.90;;;5.63;;
9166;SDS011;4618;48.818;9.088;2022-09-21T03:03:41;7.73;;;5.53;;
9166;SDS011;4618;48.818;9.088;2022-09-21T03:06:07;7.93;;;5.70;;
9166;SDS011;4618;48.818;9.088;2022-09-21T03:08:32;8.57;;;5.97;;
9166;SDS011;4618;48.818;9.088;2022-09-21T03:10:58;6.87;;;5.97;;
9166;SDS011;4618;48.818;9.088;2022-09-21T03:13:25;7.37;;;6.00;;
9166;SDS011;4618;48.818;9.088;2022-09-21T03:15:57;7.73;;;5.70;;
9166;SDS011;4618;48.818;9.088;2022-09-21T03:18:27;5.83;;;5.17;;
9166;SDS011;4618;48.818;9.088;2022-09-21T03:20:54;6.40;;;4.67;;
9166;SDS011;4618;48.818;9.088;2022-09-21T03:23:19;5.97;;;4.93;;
9166;SDS011;4618;48.818;9.088;2022-09-21T03:25:45;6.80;;;4.80;;
9166;SDS011;4618;48.818;9.088;2022-09-21T03:28:12;6.57;;;4.20;;
9166;SDS011;4618;48.818;9.088;2022-09-21T03:30:38;6.43;;;4.73;;
9166;SDS011;4618;48.818;9.088;2022-09-21T03:33:04;4.67;;;4.17;;
9166;SDS011;4618;48.818;9.088;2022-09-21T03:35:30;7.07;;;4.70;;
9166;SDS011;4618;48.818;9.088;2022-09-21T03:37:59;6.23;;;4.47;;
9166;SDS011;4618;48.818;9.088;2022-09-21T03:40:26;6.33;;;4.67;;
9166;SDS011;4618;48.818;9.088;2022-09-21T03:42:52;5.23;;;4.67;;
9166;SDS011;4618;48.818;9.088;2022-09-21T03:45:18;7.23;;;4.60;;
9166;SDS011;4618;48.818;9.088;2022-09-21T03:47:46;6.10;;;5.30;;
9166;SDS011;4618;48.818;9.088;2022-09-21T03:50:12;6.73;;;4.70;;
9166;SDS011;4618;48.818;9.088;2022-09-21T03:52:38;8.03;;;4.53;;
9166;SDS011;4618;48.818;9.088;2022-09-21T03:55:04;6.60;;;4.93;;
9166;SDS011;4618;48.818;9.088;2022-09-21T03:57:31;5.83;;;4.20;;
9166;SDS011;4618;48.818;9.088;2022-09-21T03:59:58;5.57;;;4.40;;
9166;SDS011;4618;48.818;9.088;2022-09-21T04:02:24;5.17;;;4.60;;
9166;SDS011;4618;48.818;9.088;2022-09-21T04:04:49;6.10;;;4.70;;
9166;SDS011;4618;48.818;9.088;2022-09-21T04:07:15;4.70;;;4.30;;
9166;SDS011;4618;48.818;9.088;2022-09-21T04:09:40;7.37;;;4.13;;
9166;SDS011;4618;48.818;9.088;2022-09-21T04:12:06;8.07;;;4.43;;
9166;SDS011;4618;48.818;9.088;2022-09-21T04:14:32;5.13;;;4.23;;
9166;SDS011;4618;48.818;9.088;2022-09-21T04:16:58;9.60;;;5.30;;
9166;SDS011;4618;48.818;9.088;2022-09-21T04:19:24;6.00;;;5.03;;
9166;SDS011;4618;48.818;9.088;2022-09-21T04:21:50;8.77;;;6.03;;
9166;SDS011;4618;48.818;9.088;2022-09-21T04:24:16;10.73;;;5.80;;
9166;SDS011;4618;48.818;9.088;2022-09-21T04:26:43;8.33;;;5.67;;
9166;SDS011;4618;48.818;9.088;2022-09-21T04:29:10;9.20;;;6.03;;
9166;SDS011;4618;48.818;9.088;2022-09-21T04:31:37;7.67;;;5.87;;
9166;SDS011;4618;48.818;9.088;2022-09-21T04:34:02;8.33;;;5.20;;
9166;SDS011;4618;48.818;9.088;2022-09-21T04:36:28;7.87;;;5.07;;
9166;SDS011;4618;48.818;9.088;2022-09-21T04:38:56;8.70;;;5.97;;
9166;SDS011;4618;48.818;9.088;2022-09-21T04:41:22;7.13;;;5.17;;
9166;SDS011;4618;48.818;9.088;2022-09-21T04:43:48;8.30;;;6.00;;
9166;SDS011;4618;48.818;9.088;2022-09-21T04:46:14;11.97;;;5.50;;
9166;SDS011;4618;48.818;9.088;2022-09-21T04:48:42;6.60;;;5.67;;
9166;SDS011;4618;48.818;9.088;2022-09-21T04:51:08;10.87;;;5.83;;
9166;SDS011;4618;48.818;9.088;2022-09-21T04:53:35;6.37;;;5.30;;
9166;SDS011;4618;48.818;9.088;2022-09-21T04:56:02;6.47;;;5.17;;
9166;SDS011;4618;48.818;9.088;2022-09-21T04:58:29;8.70;;;6.03;;
9166;SDS011;4618;48.818;9.088;2022-09-21T05:00:55;9.03;;;5.70;;
9166;SDS011;4618;48.818;9.088;2022-09-21T05:03:21;6.17;;;5.57;;
9166;SDS011;4618;48.818;9.088;2022-09-21T05:05:48;7.97;;;6.07;;
9166;SDS011;4618;48.818;9.088;2022-09-21T05:08:15;8.40;;;6.37;;
9166;SDS011;4618;48.818;9.088;2022-09-21T05:10:41;7.83;;;5.70;;
9166;SDS011;4618;48.818;9.088;2022-09-21T05:13:07;6.27;;;5.53;;
9166;SDS011;4618;48.818;9.088;2022-09-21T05:15:33;6.33;;;4.97;;
9166;SDS011;4618;48.818;9.088;2022-09-21T05:18:01;7.30;;;5.33;;
9166;SDS011;4618;48.818;9.088;2022-09-21T05:20:26;6.70;;;5.10;;
9166;SDS011;4618;48.818;9.088;2022-09-21T05:22:52;7.37;;;5.30;;
9166;SDS011;4618;48.818;9.088;2022-09-21T05:25:18;7.20;;;5.00;;
9166;SDS011;4618;48.818;9.088;2022-09-21T05:27:43;5.97;;;4.40;;
9166;SDS011;4618;48.818;9.088;2022-09-21T05:30:09;7.07;;;5.23;;
9166;SDS011;4618;48.818;9.088;2022-09-21T05:35:15;6.27;;;4.90;;
9166;SDS011;4618;48.818;9.088;2022-09-21T05:40:28;6.07;;;4.90;;
9166;SDS011;4618;48.818;9.088;2022-09-21T05:42:54;7.13;;;4.90;;
9166;SDS011;4618;48.818;9.088;2022-09-21T05:45:20;7.37;;;5.10;;
9166;SDS011;4618;48.818;9.088;2022-09-21T05:47:54;9.40;;;5.27;;
9166;SDS011;4618;48.818;9.088;2022-09-21T06:01:13;8.23;;;5.67;;
9166;SDS011;4618;48.818;9.088;2022-09-21T06:03:49;10.30;;;6.50;;
9166;SDS011;4618;48.818;9.088;2022-09-21T06:06:18;8.37;;;6.80;;
9166;SDS011;4618;48.818;9.088;2022-09-21T06:08:43;7.93;;;5.73;;
9166;SDS011;4618;48.818;9.088;2022-09-21T06:11:09;8.67;;;6.10;;
9166;SDS011;4618;48.818;9.088;2022-09-21T06:13:35;12.90;;;6.93;;
9166;SDS011;4618;48.818;9.088;2022-09-21T06:16:01;12.90;;;7.07;;
9166;SDS011;4618;48.818;9.088;2022-09-21T06:18:27;10.13;;;6.93;;
9166;SDS011;4618;48.818;9.088;2022-09-21T06:20:53;10.07;;;6.10;;
9166;SDS011;4618;48.818;9.088;2022-09-21T06:23:19;36.07;;;27.37;;
9166;SDS011;4618;48.818;9.088;2022-09-21T06:25:51;15.30;;;12.37;;
9166;SDS011;4618;48.818;9.088;2022-09-21T06:28:18;9.37;;;8.23;;
9166;SDS011;4618;48.818;9.088;2022-09-21T06:30:49;10.87;;;7.70;;
9166;SDS011;4618;48.818;9.088;2022-09-21T06:33:15;11.00;;;7.67;;
9166;SDS011;4618;48.818;9.088;2022-09-21T06:35:50;8.67;;;7.23;;
9166;SDS011;4618;48.818;9.088;2022-09-21T06:38:20;10.47;;;7.90;;
9166;SDS011;4618;48.818;9.088;2022-09-21T06:40:45;8.57;;;7.33;;
9166;SDS011;4618;48.818;9.088;2022-09-21T06:43:11;12.60;;;8.63;;
9166;SDS011;4618;48.818;9.088;2022-09-21T06:45:37;12.03;;;8.47;;
9166;SDS011;4618;48.818;9.088;2022-09-21T06:48:02;13.43;;;9.23;;
9166;SDS011;4618;48.818;9.088;2022-09-21T06:50:28;15.53;;;9.63;;
9166;SDS011;4618;48.818;9.088;2022-09-21T06:52:54;12.13;;;9.40;;
9166;SDS011;4618;48.818;9.088;2022-09-21T06:55:19;14.73;;;10.27;;
9166;SDS011;4618;48.818;9.088;2022-09-21T06:57:45;16.83;;;11.40;;
9166;SDS011;4618;48.818;9.088;2022-09-21T07:00:11;12.63;;;10.53;;
9166;SDS011;4618;48.818;9.088;2022-09-21T07:02:41;15.43;;;11.00;;
9166;SDS011;4618;48.818;9.088;2022-09-21T07:05:09;18.93;;;10.80;;
9166;SDS011;4618;48.818;9.088;2022-09-21T07:07:35;17.67;;;10.67;;
9166;SDS011;4618;48.818;9.088;2022-09-21T07:10:01;19.37;;;11.83;;
9166;SDS011;4618;48.818;9.088;2022-09-21T07:12:28;17.37;;;12.23;;
9166;SDS011;4618;48.818;9.088;2022-09-21T07:14:54;17.17;;;12.17;;
9166;SDS011;4618;48.818;9.088;2022-09-21T07:17:20;14.97;;;11.63;;
9166;SDS011;4618;48.818;9.088;2022-09-21T07:19:45;19.33;;;13.10;;
9166;SDS011;4618;48.818;9.088;2022-09-21T07:22:11;18.37;;;12.47;;
9166;SDS011;4618;48.818;9.088;2022-09-21T07:24:37;18.90;;;13.03;;
9166;SDS011;4618;48.818;9.088;2022-09-21T07:27:03;18.03;;;12.67;;
9166;SDS011;4618;48.818;9.088;2022-09-21T07:29:29;17.13;;;13.03;;
9166;SDS011;4618;48.818;9.088;2022-09-21T07:31:54;17.60;;;13.40;;
9166;SDS011;4618;48.818;9.088;2022-09-21T07:34:20;18.67;;;13.37;;
9166;SDS011;4618;48.818;9.088;2022-09-21T07:36:45;19.67;;;14.03;;
9166;SDS011;4618;48.818;9.088;2022-09-21T07:39:11;16.43;;;12.50;;
9166;SDS011;4618;48.818;9.088;2022-09-21T07:41:36;16.80;;;12.83;;
9166;SDS011;4618;48.818;9.088;2022-09-21T07:44:03;15.97;;;12.33;;
9166;SDS011;4618;48.818;9.088;2022-09-21T07:46:28;12.57;;;11.07;;
9166;SDS011;4618;48.818;9.088;2022-09-21T07:48:54;17.57;;;11.90;;
9166;SDS011;4618;48.818;9.088;2022-09-21T07:51:20;17.27;;;11.40;;
9166;SDS011;4618;48.818;9.088;2022-09-21T07:53:47;13.40;;;10.80;;
9166;SDS011;4618;48.818;9.088;2022-09-21T07:56:19;15.00;;;10.03;;
9166;SDS011;4618;48.818;9.088;2022-09-21T07:58:44;12.10;;;8.83;;
9166;SDS011;4618;48.818;9.088;2022-09-21T08:01:28;10.87;;;8.40;;
9166;SDS011;4618;48.818;9.088;2022-09-21T08:03:55;12.67;;;9.20;;
9166;SDS011;4618;48.818;9.088;2022-09-21T08:06:22;9.43;;;8.00;;
9166;SDS011;4618;48.818;9.088;2022-09-21T08:08:48;9.67;;;6.93;;
9166;SDS011;4618;48.818;9.088;2022-09-21T08:11:15;8.40;;;6.67;;
9166;SDS011;4618;48.818;9.088;2022-09-21T08:13:43;8.03;;;6.40;;
9166;SDS011;4618;48.818;9.088;2022-09-21T08:16:09;5.90;;;5.07;;
9166;SDS011;4618;48.818;9.088;2022-09-21T08:18:35;8.33;;;4.87;;
9166;SDS011;4618;48.818;9.088;2022-09-21T08:21:02;9.47;;;5.53;;
9166;SDS011;4618;48.818;9.088;2022-09-21T08:23:28;8.30;;;5.30;;
9166;SDS011;4618;48.818;9.088;2022-09-21T08:26:01;7.37;;;4.67;;
9166;SDS011;4618;48.818;9.088;2022-09-21T08:28:29;7.97;;;4.53;;
9166;SDS011;4618;48.818;9.088;2022-09-21T08:30:58;10.13;;;4.70;;
9166;SDS011;4618;48.818;9.088;2022-09-21T08:33:28;5.17;;;3.80;;
9166;SDS011;4618;48.818;9.088;2022-09-21T08:35:54;5.93;;;3.60;;
9166;SDS011;4618;48.818;9.088;2022-09-21T08:38:21;6.43;;;3.60;;
9166;SDS011;4618;48.818;9.088;2022-09-21T08:40:47;4.93;;;3.30;;
9166;SDS011;4618;48.818;9.088;2022-09-21T08:43:32;5.23;;;3.53;;
9166;SDS011;4618;48.818;9.088;2022-09-21T08:46:02;5.87;;;3.27;;
9166;SDS011;4618;48.818;9.088;2022-09-21T08:48:32;4.47;;;3.10;;
9166;SDS011;4618;48.818;9.088;2022-09-21T08:51:04;4.40;;;3.20;;
9166;SDS011;4618;48.818;9.088;2022-09-21T08:53:40;4.22;;;3.28;;
9166;SDS011;4618;48.818;9.088;2022-09-21T08:56:13;5.43;;;3.20;;
9166;SDS011;4618;48.818;9.088;2022-09-21T08:58:40;4.60;;;2.80;;
9166;SDS011;4618;48.818;9.088;2022-09-21T09:07:28;3.88;;;2.60;;
9166;SDS011;4618;48.818;9.088;2022-09-21T09:21:15;4.20;;;2.10;;
9166;SDS011;4618;48.818;9.088;2022-09-21T09:27:13;5.25;;;2.33;;
9166;SDS011;4618;48.818;9.088;2022-09-21T09:35:28;3.47;;;1.70;;
9166;SDS011;4618;48.818;9.088;2022-09-21T09:38:11;2.00;;;1.70;;
9166;SDS011;4618;48.818;9.088;2022-09-21T09:40:50;2.78;;;1.73;;
9166;SDS011;4618;48.818;9.088;2022-09-21T09:52:02;2.78;;;1.10;;
9166;SDS011;4618;48.818;9.088;2022-09-21T09:54:29;5.40;;;1.42;;
9166;SDS011;4618;48.818;9.088;2022-09-21T09:56:59;2.40;;;1.10;;
9166;SDS011;4618;48.818;9.088;2022-09-21T09:59:42;1.23;;;0.70;;
9166;SDS011;4618;48.818;9.088;2022-09-21T10:02:21;1.88;;;0.93;;
9166;SDS011;4618;48.818;9.088;2022-09-21T10:05:03;3.10;;;1.00;;
9166;SDS011;4618;48.818;9.088;2022-09-21T10:07:34;1.60;;;1.00;;
9166;SDS011;4618;48.818;9.088;2022-09-21T10:10:00;1.92;;;0.80;;
9166;SDS011;4618;48.818;9.088;2022-09-21T10:12:25;1.35;;;0.80;;
9166;SDS011;4618;48.818;9.088;2022-09-21T10:14:53;1.33;;;0.95;;
9166;SDS011;4618;48.818;9.088;2022-09-21T10:17:22;3.92;;;0.80;;
9166;SDS011;4618;48.818;9.088;2022-09-21T10:19:57;1.75;;;0.60;;
9166;SDS011;4618;48.818;9.088;2022-09-21T10:22:24;1.80;;;0.80;;
9166;SDS011;4618;48.818;9.088;2022-09-21T10:24:51;2.45;;;0.80;;
9166;SDS011;4618;48.818;9.088;2022-09-21T10:27:20;1.88;;;0.60;;
9166;SDS011;4618;48.818;9.088;2022-09-21T10:29:49;0.68;;;0.52;;
9166;SDS011;4618;48.818;9.088;2022-09-21T10:34:40;2.25;;;0.90;;
9166;SDS011;4618;48.818;9.088;2022-09-21T10:37:32;1.25;;;0.80;;
9166;SDS011;4618;48.818;9.088;2022-09-21T10:39:59;1.27;;;0.60;;
9166;SDS011;4618;48.818;9.088;2022-09-21T10:42:25;1.58;;;0.90;;
9166;SDS011;4618;48.818;9.088;2022-09-21T10:47:42;1.95;;;1.10;;
9166;SDS011;4618;48.818;9.088;2022-09-21T10:50:21;1.52;;;1.20;;
9166;SDS011;4618;48.818;9.088;2022-09-21T10:55:35;2.05;;;1.17;;
9166;SDS011;4618;48.818;9.088;2022-09-21T10:58:09;1.73;;;1.05;;
9166;SDS011;4618;48.818;9.088;2022-09-21T11:00:43;2.05;;;1.17;;
9166;SDS011;4618;48.818;9.088;2022-09-21T11:03:35;1.58;;;0.90;;
9166;SDS011;4618;48.818;9.088;2022-09-21T11:08:42;1.80;;;1.08;;
9166;SDS011;4618;48.818;9.088;2022-09-21T11:11:17;1.80;;;1.10;;
9166;SDS011;4618;48.818;9.088;2022-09-21T11:14:10;1.65;;;1.10;;
9166;SDS011;4618;48.818;9.088;2022-09-21T11:16:54;1.58;;;1.13;;
9166;SDS011;4618;48.818;9.088;2022-09-21T11:22:09;2.58;;;1.00;;
9166;SDS011;4618;48.818;9.088;2022-09-21T11:30:08;1.50;;;0.80;;
9166;SDS011;4618;48.818;9.088;2022-09-21T12:05:14;0.90;;;0.35;;
9166;SDS011;4618;48.818;9.088;2022-09-21T12:07:55;1.48;;;0.40;;
9166;SDS011;4618;48.818;9.088;2022-09-21T12:10:37;1.85;;;0.68;;
9166;SDS011;4618;48.818;9.088;2022-09-21T12:13:22;1.27;;;0.30;;
9166;SDS011;4618;48.818;9.088;2022-09-21T12:16:08;0.40;;;0.40;;
9166;SDS011;4618;48.818;9.088;2022-09-21T12:21:33;0.70;;;0.40;;
9166;SDS011;4618;48.818;9.088;2022-09-21T12:24:40;0.98;;;0.40;;
9166;SDS011;4618;48.818;9.088;2022-09-21T12:27:07;1.40;;;0.28;;
9166;SDS011;4618;48.818;9.088;2022-09-21T12:29:47;0.70;;;0.40;;
9166;SDS011;4618;48.818;9.088;2022-09-21T12:32:21;1.08;;;0.32;;
9166;SDS011;4618;48.818;9.088;2022-09-21T12:37:55;0.55;;;0.30;;
9166;SDS011;4618;48.818;9.088;2022-09-21T12:40:33;2.08;;;0.40;;
9166;SDS011;4618;48.818;9.088;2022-09-21T12:45:30;0.40;;;0.40;;
9166;SDS011;4618;48.818;9.088;2022-09-21T12:50:47;1.00;;;0.50;;
9166;SDS011;4618;48.818;9.088;2022-09-21T12:53:19;0.43;;;0.30;;
9166;SDS011;4618;48.818;9.088;2022-09-21T12:58:47;0.30;;;0.30;;
9166;SDS011;4618;48.818;9.088;2022-09-21T13:01:34;0.98;;;0.30;;
9166;SDS011;4618;48.818;9.088;2022-09-21T13:09:41;1.27;;;0.38;;
9166;SDS011;4618;48.818;9.088;2022-09-21T13:12:24;1.50;;;0.40;;
9166;SDS011;4618;48.818;9.088;2022-09-21T13:15:03;1.52;;;0.60;;
9166;SDS011;4618;48.818;9.088;2022-09-21T13:17:38;1.80;;;0.55;;
9166;SDS011;4618;48.818;9.088;2022-09-21T13:20:18;0.98;;;0.47;;
9166;SDS011;4618;48.818;9.088;2022-09-21T13:22:45;0.90;;;0.40;;
9166;SDS011;4618;48.818;9.088;2022-09-21T13:25:22;2.30;;;0.40;;
9166;SDS011;4618;48.818;9.088;2022-09-21T13:32:57;2.33;;;0.55;;
9166;SDS011;4618;48.818;9.088;2022-09-21T13:36:28;0.95;;;0.50;;
9166;SDS011;4618;48.818;9.088;2022-09-21T13:51:50;0.70;;;0.40;;
9166;SDS011;4618;48.818;9.088;2022-09-21T13:54:20;0.77;;;0.30;;
9166;SDS011;4618;48.818;9.088;2022-09-21T13:57:00;0.60;;;0.50;;
9166;SDS011;4618;48.818;9.088;2022-09-21T13:59:46;0.77;;;0.43;;
9166;SDS011;4618;48.818;9.088;2022-09-21T14:04:58;0.80;;;0.40;;
9166;SDS011;4618;48.818;9.088;2022-09-21T14:07:42;0.43;;;0.40;;
9166;SDS011;4618;48.818;9.088;2022-09-21T14:10:15;1.95;;;0.50;;
9166;SDS011;4618;48.818;9.088;2022-09-21T14:12:43;0.30;;;0.30;;
9166;SDS011;4618;48.818;9.088;2022-09-21T14:17:41;3.92;;;0.77;;
9166;SDS011;4618;48.818;9.088;2022-09-21T14:20:24;1.63;;;0.50;;
9166;SDS011;4618;48.818;9.088;2022-09-21T14:25:55;0.30;;;0.30;;
9166;SDS011;4618;48.818;9.088;2022-09-21T14:28:42;0.55;;;0.30;;
9166;SDS011;4618;48.818;9.088;2022-09-21T14:31:18;0.30;;;0.30;;
9166;SDS011;4618;48.818;9.088;2022-09-21T14:33:52;0.82;;;0.35;;
9166;SDS011;4618;48.818;9.088;2022-09-21T14:36:41;1.40;;;0.40;;
9166;SDS011;4618;48.818;9.088;2022-09-21T14:39:15;0.60;;;0.40;;
9166;SDS011;4618;48.818;9.088;2022-09-21T14:41:47;0.95;;;0.40;;
9166;SDS011;4618;48.818;9.088;2022-09-21T14:44:21;0.50;;;0.32;;
9166;SDS011;4618;48.818;9.088;2022-09-21T14:49:51;0.40;;;0.40;;
9166;SDS011;4618;48.818;9.088;2022-09-21T15:00:48;1.20;;;0.33;;
9166;SDS011;4618;48.818;9.088;2022-09-21T15:12:16;0.80;;;0.50;;
9166;SDS011;4618;48.818;9.088;2022-09-21T15:17:53;3.13;;;0.60;;
9166;SDS011;4618;48.818;9.088;2022-09-21T15:20:23;1.30;;;0.40;;
9166;SDS011;4618;48.818;9.088;2022-09-21T15:22:53;0.50;;;0.30;;
9166;SDS011;4618;48.818;9.088;2022-09-21T15:25:20;0.30;;;0.30;;
9166;SDS011;4618;48.818;9.088;2022-09-21T15:27:47;0.60;;;0.40;;
9166;SDS011;4618;48.818;9.088;2022-09-21T15:30:18;0.60;;;0.30;;
9166;SDS011;4618;48.818;9.088;2022-09-21T15:32:55;0.80;;;0.50;;
9166;SDS011;4618;48.818;9.088;2022-09-21T15:35:25;1.03;;;0.30;;
9166;SDS011;4618;48.818;9.088;2022-09-21T15:37:53;0.80;;;0.40;;
9166;SDS011;4618;48.818;9.088;2022-09-21T15:40:24;1.20;;;0.40;;
9166;SDS011;4618;48.818;9.088;2022-09-21T15:42:59;0.57;;;0.40;;
9166;SDS011;4618;48.818;9.088;2022-09-21T15:45:29;0.40;;;0.30;;
9166;SDS011;4618;48.818;9.088;2022-09-21T15:47:58;2.50;;;0.30;;
9166;SDS011;4618;48.818;9.088;2022-09-21T15:50:25;1.33;;;0.30;;
9166;SDS011;4618;48.818;9.088;2022-09-21T15:52:54;0.57;;;0.40;;
9166;SDS011;4618;48.818;9.088;2022-09-21T15:55:24;0.50;;;0.30;;
9166;SDS011;4618;48.818;9.088;2022-09-21T15:57:50;0.50;;;0.50;;
9166;SDS011;4618;48.818;9.088;2022-09-21T16:00:22;0.83;;;0.30;;
9166;SDS011;4618;48.818;9.088;2022-09-21T16:03:02;0.30;;;0.30;;
9166;SDS011;4618;48.818;9.088;2022-09-21T16:05:31;0.83;;;0.30;;
9166;SDS011;4618;48.818;9.088;2022-09-21T16:08:19;2.30;;;0.30;;
9166;SDS011;4618;48.818;9.088;2022-09-21T16:10:51;0.30;;;0.30;;
9166;SDS011;4618;48.818;9.088;2022-09-21T16:13:22;0.60;;;0.30;;
9166;SDS011;4618;48.818;9.088;2022-09-21T16:16:11;0.30;;;0.30;;
9166;SDS011;4618;48.818;9.088;2022-09-21T16:18:48;1.90;;;1.03;;
9166;SDS011;4618;48.818;9.088;2022-09-21T16:23:57;0.30;;;0.30;;
9166;SDS011;4618;48.818;9.088;2022-09-21T16:26:35;0.60;;;0.50;;
9166;SDS011;4618;48.818;9.088;2022-09-21T16:29:18;0.60;;;0.50;;
9166;SDS011;4618;48.818;9.088;2022-09-21T16:31:47;1.00;;;0.40;;
9166;SDS011;4618;48.818;9.088;2022-09-21T16:34:18;0.43;;;0.40;;
9166;SDS011;4618;48.818;9.088;2022-09-21T16:36:56;2.77;;;0.57;;
9166;SDS011;4618;48.818;9.088;2022-09-21T16:39:22;1.90;;;0.43;;
9166;SDS011;4618;48.818;9.088;2022-09-21T16:42:00;3.33;;;0.50;;
9166;SDS011;4618;48.818;9.088;2022-09-21T16:44:27;0.50;;;0.50;;
9166;SDS011;4618;48.818;9.088;2022-09-21T16:46:59;2.40;;;1.57;;
9166;SDS011;4618;48.818;9.088;2022-09-21T16:49:29;3.77;;;2.30;;
9166;SDS011;4618;48.818;9.088;2022-09-21T16:51:59;1.70;;;1.37;;
9166;SDS011;4618;48.818;9.088;2022-09-21T16:54:25;1.30;;;0.80;;
9166;SDS011;4618;48.818;9.088;2022-09-21T16:56:52;0.70;;;0.57;;
9166;SDS011;4618;48.818;9.088;2022-09-21T16:59:20;1.47;;;0.50;;
9166;SDS011;4618;48.818;9.088;2022-09-21T17:01:47;0.53;;;0.50;;
9166;SDS011;4618;48.818;9.088;2022-09-21T17:04:14;0.50;;;0.50;;
9166;SDS011;4618;48.818;9.088;2022-09-21T17:06:42;0.90;;;0.60;;
9166;SDS011;4618;48.818;9.088;2022-09-21T17:09:16;0.50;;;0.40;;
9166;SDS011;4618;48.818;9.088;2022-09-21T17:11:43;1.53;;;0.50;;
9166;SDS011;4618;48.818;9.088;2022-09-21T17:14:09;0.50;;;0.40;;
9166;SDS011;4618;48.818;9.088;2022-09-21T17:17:02;0.63;;;0.40;;
9166;SDS011;4618;48.818;9.088;2022-09-21T17:19:41;1.00;;;0.60;;
9166;SDS011;4618;48.818;9.088;2022-09-21T17:22:08;1.47;;;0.60;;
9166;SDS011;4618;48.818;9.088;2022-09-21T17:24:34;1.83;;;0.63;;
9166;SDS011;4618;48.818;9.088;2022-09-21T17:27:01;0.90;;;0.50;;
9166;SDS011;4618;48.818;9.088;2022-09-21T17:29:26;0.70;;;0.63;;
9166;SDS011;4618;48.818;9.088;2022-09-21T17:31:54;0.97;;;0.47;;
9166;SDS011;4618;48.818;9.088;2022-09-21T17:34:24;1.00;;;0.50;;
9166;SDS011;4618;48.818;9.088;2022-09-21T17:36:52;1.43;;;0.70;;
9166;SDS011;4618;48.818;9.088;2022-09-21T17:39:18;3.13;;;0.80;;
9166;SDS011;4618;48.818;9.088;2022-09-21T17:41:56;3.33;;;0.70;;
9166;SDS011;4618;48.818;9.088;2022-09-21T17:47:22;0.80;;;0.60;;
9166;SDS011;4618;48.818;9.088;2022-09-21T17:49:52;1.17;;;0.63;;
9166;SDS011;4618;48.818;9.088;2022-09-21T17:52:18;0.87;;;0.80;;
9166;SDS011;4618;48.818;9.088;2022-09-21T17:55:04;2.57;;;1.00;;
9166;SDS011;4618;48.818;9.088;2022-09-21T18:00:10;2.13;;;1.23;;
9166;SDS011;4618;48.818;9.088;2022-09-21T18:02:37;3.23;;;1.30;;
9166;SDS011;4618;48.818;9.088;2022-09-21T18:05:14;1.63;;;1.50;;
9166;SDS011;4618;48.818;9.088;2022-09-21T18:07:49;1.83;;;1.33;;
9166;SDS011;4618;48.818;9.088;2022-09-21T18:10:16;1.87;;;1.30;;
9166;SDS011;4618;48.818;9.088;2022-09-21T18:15:32;2.23;;;1.37;;
9166;SDS011;4618;48.818;9.088;2022-09-21T18:18:17;1.67;;;1.20;;
9166;SDS011;4618;48.818;9.088;2022-09-21T18:26:11;2.47;;;1.60;;
9166;SDS011;4618;48.818;9.088;2022-09-21T18:36:48;4.00;;;2.80;;
9166;SDS011;4618;48.818;9.088;2022-09-21T18:39:29;3.03;;;1.90;;
9166;SDS011;4618;48.818;9.088;2022-09-21T18:42:21;2.40;;;2.00;;
9166;SDS011;4618;48.818;9.088;2022-09-21T18:44:52;2.07;;;1.53;;
9166;SDS011;4618;48.818;9.088;2022-09-21T18:47:34;1.53;;;1.30;;
9166;SDS011;4618;48.818;9.088;2022-09-21T18:55:41;3.10;;;1.60;;
9166;SDS011;4618;48.818;9.088;2022-09-21T18:58:07;1.60;;;1.50;;
9166;SDS011;4618;48.818;9.088;2022-09-21T19:00:39;2.07;;;1.67;;
9166;SDS011;4618;48.818;9.088;2022-09-21T19:03:06;3.33;;;1.90;;
9166;SDS011;4618;48.818;9.088;2022-09-21T19:05:36;2.73;;;2.13;;
9166;SDS011;4618;48.818;9.088;2022-09-21T19:16:43;2.80;;;1.93;;
9166;SDS011;4618;48.818;9.088;2022-09-21T19:19:31;3.27;;;2.63;;
9166;SDS011;4618;48.818;9.088;2022-09-21T19:27:47;3.17;;;2.50;;
9166;SDS011;4618;48.818;9.088;2022-09-21T19:30:22;3.10;;;2.23;;
9166;SDS011;4618;48.818;9.088;2022-09-21T19:32:48;2.93;;;1.73;;
9166;SDS011;4618;48.818;9.088;2022-09-21T19:35:27;2.87;;;2.23;;
9166;SDS011;4618;48.818;9.088;2022-09-21T19:37:57;3.53;;;2.00;;
9166;SDS011;4618;48.818;9.088;2022-09-21T19:40:26;4.00;;;2.50;;